Weather at Walter Reed National Medical Center Heliport

Public forecast

Using degrees Fahrenheit for public forecast. Weather courtesy of forecast.io.

Closest aviation weather report (METAR) to Walter Reed National Medical Center Heliport

Closest report is College Park Airport, 8.2 nm (15.1 km) E. Retrieved 2021/01/23 08:35 UTC (17 minutes ago):

KCGS 230835Z AUTO 33004KT 10SM BKN065 01/M11 A3004 RMK AO1 T00101107

Closest aviation forecast (TAF) to Walter Reed National Medical Center Heliport

Closest forecast is Ronald Reagan Washington National Airport, 9.3 nm (17.2 km) SSE. Retrieved 2021/01/23 06:22 UTC (3 hours ago):

TAF KDCA 230520Z 2306/2412 33008KT P6SM SCT050 FM230900 33010G18KT P6SM BKN035 FM231300 33018G33KT P6SM BKN035 FM231700 33015G28KT P6SM FEW050 FM232300 33008G16KT P6SM SKC FM240600 33008KT P6SM SKC